createdAt,value
2017-12-10T00:00:28.539Z,2.23
2017-12-10T00:01:29.251Z,2.15
2017-12-10T00:02:28.575Z,2.15
2017-12-10T00:03:28.514Z,2.23
2017-12-10T00:04:29.312Z,2.18
2017-12-10T00:05:29.049Z,2.15
2017-12-10T00:06:28.537Z,2.18
2017-12-10T00:07:28.839Z,2.18
2017-12-10T00:08:29.242Z,2.08
2017-12-10T00:09:29.003Z,2.09
2017-12-10T00:10:29.672Z,2.15
2017-12-10T00:11:30.154Z,2.18
2017-12-10T00:12:30.164Z,2.08
2017-12-10T00:13:30.142Z,2.13
2017-12-10T00:14:29.919Z,2.15
2017-12-10T00:15:30.407Z,2.12
2017-12-10T00:16:30.770Z,2.11
2017-12-10T00:17:29.881Z,2.12
2017-12-10T00:18:30.203Z,2.11
2017-12-10T00:19:29.922Z,2.15
2017-12-10T00:20:30.857Z,2.08
2017-12-10T00:21:31.323Z,2.15
2017-12-10T00:22:30.510Z,2.16
2017-12-10T00:23:31.070Z,2.13
2017-12-10T00:24:30.631Z,2.04
2017-12-10T00:25:30.925Z,2.11
2017-12-10T00:26:31.572Z,2.11
2017-12-10T00:27:31.428Z,2.13
2017-12-10T00:28:31.492Z,2.16
2017-12-10T00:29:31.442Z,2.12
2017-12-10T00:30:31.939Z,2.15
2017-12-10T00:31:32.088Z,2.15
2017-12-10T00:32:32.504Z,2.11
2017-12-10T00:33:32.274Z,2.08
2017-12-10T00:34:32.276Z,2.08
2017-12-10T00:35:32.727Z,2.11
2017-12-10T00:36:33.026Z,2.05
2017-12-10T00:37:33.296Z,2.09
2017-12-10T00:38:33.277Z,2.08
2017-12-10T00:39:33.813Z,2.09
2017-12-10T00:40:33.277Z,2.06
2017-12-10T00:41:33.312Z,2.08
2017-12-10T00:42:33.371Z,2.08
2017-12-10T00:43:32.829Z,2.11
2017-12-10T00:44:33.500Z,2.04
2017-12-10T00:45:33.449Z,2.06
2017-12-10T00:46:34.255Z,2.08
2017-12-10T00:47:33.902Z,2.04
2017-12-10T00:48:34.646Z,2.11
2017-12-10T00:49:34.822Z,2.11
2017-12-10T00:50:35.816Z,2.11
2017-12-10T00:51:36.047Z,2.11
2017-12-10T00:52:36.005Z,2.08
2017-12-10T00:53:36.187Z,2.06
2017-12-10T00:54:35.617Z,2.13
2017-12-10T00:55:36.430Z,2.11
2017-12-10T00:56:36.365Z,2.05
2017-12-10T00:57:35.815Z,2.05
2017-12-10T00:58:35.593Z,2.05
2017-12-10T00:59:35.276Z,2.09
2017-12-10T01:00:35.246Z,2.04
2017-12-10T01:01:35.275Z,2.08
2017-12-10T01:02:35.208Z,2.02
2017-12-10T01:03:36.041Z,2.06
2017-12-10T01:04:35.717Z,2.06
2017-12-10T01:05:35.529Z,2.05
2017-12-10T01:06:36.416Z,2.04
2017-12-10T01:07:35.553Z,2.01
2017-12-10T01:08:37.650Z,2.05
2017-12-10T01:09:36.048Z,2.06
2017-12-10T01:10:37.968Z,1.94
2017-12-10T01:11:37.995Z,1.94
2017-12-10T01:12:38.170Z,2.01
2017-12-10T01:13:37.347Z,2.05
2017-12-10T01:14:36.196Z,2.01
2017-12-10T01:15:38.104Z,2.06
2017-12-10T01:16:38.063Z,2.01
2017-12-10T01:17:37.959Z,1.9
2017-12-10T01:18:37.142Z,2.02
2017-12-10T01:19:36.838Z,1.93
2017-12-10T01:20:36.557Z,1.89
2017-12-10T01:21:36.844Z,1.93
2017-12-10T01:22:36.823Z,1.94
2017-12-10T01:23:36.921Z,1.92
2017-12-10T01:24:37.462Z,1.93
2017-12-10T01:25:37.608Z,1.94
2017-12-10T01:26:38.045Z,1.93
2017-12-10T01:27:37.783Z,1.93
2017-12-10T01:28:37.951Z,1.9
2017-12-10T01:29:38.608Z,1.87
2017-12-10T01:30:38.346Z,1.89
2017-12-10T01:31:38.648Z,1.93
2017-12-10T01:32:38.139Z,1.9
2017-12-10T01:33:38.731Z,1.9
2017-12-10T01:34:38.439Z,1.92
2017-12-10T01:35:38.737Z,1.92
2017-12-10T01:36:38.941Z,1.9
2017-12-10T01:37:39.137Z,1.9
2017-12-10T01:38:39.010Z,1.87
2017-12-10T01:39:38.645Z,1.86
2017-12-10T01:40:39.189Z,1.83
2017-12-10T01:41:39.492Z,1.82
2017-12-10T01:42:39.613Z,1.83
2017-12-10T01:43:40.161Z,1.87
2017-12-10T01:44:40.366Z,1.83
2017-12-10T01:45:39.967Z,1.79
2017-12-10T01:46:40.628Z,1.84
2017-12-10T01:47:40.595Z,1.75
2017-12-10T01:48:40.523Z,1.84
2017-12-10T01:49:40.135Z,1.84
2017-12-10T01:50:40.275Z,1.79
2017-12-10T01:51:40.648Z,1.84
2017-12-10T01:52:40.385Z,1.82
2017-12-10T01:53:40.055Z,1.72
2017-12-10T01:54:40.514Z,1.68
2017-12-10T01:55:40.328Z,1.72
2017-12-10T01:56:40.213Z,1.71
2017-12-10T01:57:40.366Z,1.72
2017-12-10T01:58:54.978Z,1.71
2017-12-10T01:59:40.204Z,1.68
2017-12-10T02:00:41.276Z,1.69
2017-12-10T02:01:41.203Z,1.65
2017-12-10T02:02:41.504Z,1.56
2017-12-10T02:03:40.901Z,1.61
2017-12-10T02:04:40.754Z,1.6
2017-12-10T02:05:41.908Z,1.61
2017-12-10T02:06:41.377Z,1.58
2017-12-10T02:07:41.526Z,1.6
2017-12-10T02:08:42.064Z,1.58
2017-12-10T02:09:42.123Z,1.56
2017-12-10T02:10:41.954Z,1.5
2017-12-10T02:11:41.759Z,1.51
2017-12-10T02:12:42.205Z,1.46
2017-12-10T02:13:42.225Z,1.51
2017-12-10T02:14:42.737Z,1.42
2017-12-10T02:15:56.875Z,1.4
2017-12-10T02:16:42.013Z,1.4
2017-12-10T02:17:42.396Z,1.36
2017-12-10T02:18:42.407Z,1.36
2017-12-10T02:19:42.448Z,1.4
2017-12-10T02:20:42.706Z,1.38
2017-12-10T02:21:42.636Z,1.39
2017-12-10T02:22:42.241Z,1.29
2017-12-10T02:23:42.835Z,1.26
2017-12-10T02:24:42.578Z,1.22
2017-12-10T02:25:42.702Z,1.21
2017-12-10T02:26:43.224Z,1.12
2017-12-10T02:27:43.380Z,1.26
2017-12-10T02:28:43.800Z,1.2
2017-12-10T02:29:48.836Z,1.07
2017-12-10T02:30:49.512Z,1.12
2017-12-10T02:31:49.550Z,1.08
2017-12-10T02:32:49.171Z,1.11
2017-12-10T02:33:49.714Z,1.2
2017-12-10T02:34:49.564Z,1.11
2017-12-10T02:35:50.026Z,1.2
2017-12-10T02:37:04.594Z,1.1
2017-12-10T02:37:49.472Z,1.26
2017-12-10T02:38:49.777Z,1.18
2017-12-10T02:39:54.619Z,1.12
2017-12-10T02:40:54.827Z,1.1
2017-12-10T02:41:55.136Z,1.08
2017-12-10T02:42:54.841Z,1.04
2017-12-10T02:43:54.995Z,0.93
2017-12-10T02:44:55.016Z,0.89
2017-12-10T02:45:55.461Z,0.89
2017-12-10T02:46:55.778Z,0.85
2017-12-10T02:47:55.206Z,0.75
2017-12-10T02:48:55.488Z,0.85
2017-12-10T02:49:55.662Z,0.76
2017-12-10T02:50:55.769Z,0.78
2017-12-10T02:52:02.590Z,0.82
2017-12-10T02:52:56.556Z,0.67
2017-12-10T02:53:56.448Z,0.63
2017-12-10T02:54:56.470Z,0.66
2017-12-10T02:55:56.491Z,0.67
2017-12-10T02:56:56.522Z,0.72
2017-12-10T02:57:56.141Z,0.76
2017-12-10T02:58:56.428Z,0.74
2017-12-10T02:59:57.138Z,0.76
2017-12-10T03:00:56.997Z,0.82
2017-12-10T03:01:57.174Z,0.72
2017-12-10T03:04:12.208Z,0.74
2017-12-10T03:05:11.726Z,0.66
2017-12-10T03:06:26.731Z,0.75
2017-12-10T03:07:12.470Z,0.67
2017-12-10T03:08:12.444Z,0.64
2017-12-10T03:09:12.188Z,0.66
2017-12-10T03:10:12.480Z,0.67
2017-12-10T03:11:12.517Z,0.69
2017-12-10T03:12:12.529Z,0.69
2017-12-10T03:13:12.411Z,0.57
2017-12-10T03:14:13.108Z,0.6
2017-12-10T03:15:13.124Z,0.57
2017-12-10T03:16:13.170Z,0.53
2017-12-10T03:18:14.200Z,0.58
2017-12-10T03:19:28.190Z,0.57
2017-12-10T03:20:19.091Z,0.58
2017-12-10T03:21:19.049Z,0.66
2017-12-10T03:22:19.386Z,0.69
2017-12-10T03:23:33.686Z,0.69
2017-12-10T03:24:19.111Z,0.6
2017-12-10T03:25:33.746Z,0.69
2017-12-10T03:26:19.186Z,0.58
2017-12-10T03:27:19.301Z,0.48
2017-12-10T03:28:48.400Z,0.58
2017-12-10T03:29:33.827Z,0.56
2017-12-10T03:30:33.464Z,0.52
2017-12-10T03:31:36.674Z,0.39
2017-12-10T03:32:33.595Z,0.44
2017-12-10T03:33:33.752Z,0.42
2017-12-10T03:34:39.545Z,0.38
2017-12-10T03:35:39.304Z,0.39
2017-12-10T03:36:51.142Z,0.35
2017-12-10T03:37:49.281Z,0.27
2017-12-10T03:38:49.272Z,0.26
2017-12-10T03:39:49.341Z,0.17
2017-12-10T03:40:54.589Z,0.1
2017-12-10T03:41:55.081Z,0.08
2017-12-10T03:42:54.772Z,0.01
2017-12-10T03:44:02.131Z,-0.13
2017-12-10T03:46:01.551Z,-0.12
2017-12-10T03:48:01.975Z,-0.18
2017-12-10T03:49:01.980Z,-0.1
2017-12-10T03:50:02.017Z,-0.18
2017-12-10T03:51:02.039Z,-0.16
2017-12-10T03:52:02.043Z,-0.22
2017-12-10T03:53:02.178Z,-0.18
2017-12-10T03:54:07.631Z,-0.13
2017-12-10T03:55:08.195Z,-0.2
2017-12-10T03:56:08.303Z,-0.18
2017-12-10T03:57:09.858Z,-0.23
2017-12-10T03:58:08.267Z,-0.15
2017-12-10T03:59:08.036Z,-0.23
2017-12-10T04:01:08.859Z,-0.16
2017-12-10T04:02:23.200Z,-0.15
2017-12-10T04:03:08.400Z,-0.19
2017-12-10T04:04:14.166Z,-0.09
2017-12-10T04:05:14.598Z,-0.18
2017-12-10T04:06:14.073Z,-0.2
2017-12-10T04:07:14.692Z,-0.22
2017-12-10T04:08:15.158Z,-0.25
2017-12-10T04:09:15.138Z,-0.22
2017-12-10T04:10:14.640Z,-0.22
2017-12-10T04:11:15.440Z,-0.13
2017-12-10T04:12:15.334Z,-0.16
2017-12-10T04:13:16.138Z,-0.15
2017-12-10T04:14:15.833Z,-0.18
2017-12-10T04:15:15.994Z,-0.23
2017-12-10T04:16:16.113Z,-0.25
2017-12-10T04:17:16.187Z,-0.22
2017-12-10T04:18:16.936Z,-0.31
2017-12-10T04:19:17.133Z,-0.25
2017-12-10T04:20:17.059Z,-0.12
2017-12-10T04:21:17.466Z,-0.23
2017-12-10T04:22:17.889Z,-0.04
2017-12-10T04:23:17.899Z,-0.1
2017-12-10T04:24:18.086Z,-0.07
2017-12-10T04:25:17.821Z,-0.04
2017-12-10T04:26:18.001Z,0.06
2017-12-10T04:27:18.013Z,0.17
2017-12-10T04:28:18.449Z,0.1
2017-12-10T04:29:18.496Z,0.17
2017-12-10T04:30:18.964Z,0.1
2017-12-10T04:31:19.018Z,0.03
2017-12-10T04:32:18.740Z,-0.02
2017-12-10T04:33:19.183Z,-0.09
2017-12-10T04:34:19.069Z,0.01
2017-12-10T04:35:19.344Z,0.02
2017-12-10T04:36:19.424Z,-0.09
2017-12-10T04:37:19.362Z,-0.09
2017-12-10T04:38:20.055Z,0.01
2017-12-10T04:39:19.883Z,-0.04
2017-12-10T04:40:20.537Z,-0.07
2017-12-10T04:41:20.457Z,-0.07
2017-12-10T04:42:20.716Z,-0.04
2017-12-10T04:43:20.750Z,-0.01
2017-12-10T04:44:20.955Z,0.01
2017-12-10T04:45:20.896Z,-0.05
2017-12-10T04:46:21.545Z,0.01
2017-12-10T04:47:21.434Z,-0.13
2017-12-10T04:48:21.889Z,-0.05
2017-12-10T04:49:22.269Z,0.06
2017-12-10T04:50:22.309Z,0.19
2017-12-10T04:51:22.379Z,0.19
2017-12-10T04:52:22.333Z,0.06
2017-12-10T04:53:22.342Z,0.17
2017-12-10T04:54:22.373Z,0.17
2017-12-10T04:55:22.849Z,0.14
2017-12-10T04:56:22.796Z,0.13
2017-12-10T04:57:22.564Z,0.14
2017-12-10T04:58:22.824Z,0.1
2017-12-10T04:59:23.244Z,0.14
2017-12-10T05:00:28.411Z,0.06
2017-12-10T05:01:27.879Z,0.08
2017-12-10T05:02:28.318Z,0.13
2017-12-10T05:03:28.360Z,0.1
2017-12-10T05:04:28.533Z,0.09
2017-12-10T05:05:28.531Z,0.1
2017-12-10T05:06:28.665Z,0.06
2017-12-10T05:07:29.072Z,0.16
2017-12-10T05:08:29.515Z,0.16
2017-12-10T05:09:29.940Z,0.16
2017-12-10T05:10:29.958Z,0.14
2017-12-10T05:11:30.393Z,0.19
2017-12-10T05:12:30.431Z,0.19
2017-12-10T05:13:30.609Z,0.2
2017-12-10T05:14:30.519Z,0.24
2017-12-10T05:15:30.458Z,0.21
2017-12-10T05:16:30.481Z,0.24
2017-12-10T05:17:30.496Z,0.2
2017-12-10T05:18:30.540Z,0.21
2017-12-10T05:19:30.558Z,0.21
2017-12-10T05:20:30.588Z,0.16
2017-12-10T05:21:30.671Z,0.14
2017-12-10T05:22:30.365Z,0.16
2017-12-10T05:23:30.737Z,0.16
2017-12-10T05:24:31.456Z,0.06
2017-12-10T05:25:31.467Z,0.17
2017-12-10T05:26:31.467Z,0.05
2017-12-10T05:27:31.210Z,0.01
2017-12-10T05:28:31.577Z,-0.05
2017-12-10T05:29:31.962Z,-0.07
2017-12-10T05:30:31.989Z,-0.04
2017-12-10T05:31:32.468Z,0.06
2017-12-10T05:32:32.438Z,0.13
2017-12-10T05:33:32.472Z,0.17
2017-12-10T05:34:32.929Z,0.23
2017-12-10T05:35:32.883Z,0.34
2017-12-10T05:36:33.265Z,0.42
2017-12-10T05:37:32.991Z,0.37
2017-12-10T05:38:33.131Z,0.37
2017-12-10T05:39:33.559Z,0.45
2017-12-10T05:40:33.711Z,0.42
2017-12-10T05:41:33.866Z,0.45
2017-12-10T05:42:34.525Z,0.47
2017-12-10T05:43:34.295Z,0.42
2017-12-10T05:44:34.570Z,0.45
2017-12-10T05:45:34.781Z,0.44
2017-12-10T05:46:34.766Z,0.44
2017-12-10T05:47:34.958Z,0.5
2017-12-10T05:48:35.216Z,0.47
2017-12-10T05:49:35.000Z,0.41
2017-12-10T05:50:35.257Z,0.42
2017-12-10T05:51:35.043Z,0.45
2017-12-10T05:52:35.735Z,0.37
2017-12-10T05:53:35.730Z,0.42
2017-12-10T05:54:35.755Z,0.38
2017-12-10T05:56:35.908Z,0.42
2017-12-10T05:57:36.632Z,0.39
2017-12-10T05:58:36.784Z,0.45
2017-12-10T05:59:37.220Z,0.41
2017-12-10T06:00:37.122Z,0.47
2017-12-10T06:01:37.242Z,0.45
2017-12-10T06:02:37.258Z,0.37
2017-12-10T06:03:37.648Z,0.52
2017-12-10T06:04:37.715Z,0.39
2017-12-10T06:05:37.421Z,0.39
2017-12-10T06:06:38.103Z,0.38
2017-12-10T06:07:38.140Z,0.35
2017-12-10T06:08:38.132Z,0.42
2017-12-10T06:09:38.810Z,0.38
2017-12-10T06:10:39.127Z,0.28
2017-12-10T06:11:39.212Z,0.28
2017-12-10T06:12:38.844Z,0.27
2017-12-10T06:13:38.694Z,0.24
2017-12-10T06:14:39.292Z,0.21
2017-12-10T06:15:39.639Z,0.17
2017-12-10T06:16:39.463Z,0.17
2017-12-10T06:17:39.408Z,0.13
2017-12-10T06:18:39.889Z,0.14
2017-12-10T06:19:39.848Z,0.09
2017-12-10T06:20:39.926Z,-0.01
2017-12-10T06:21:39.780Z,0.13
2017-12-10T06:22:39.617Z,0.08
2017-12-10T06:23:39.483Z,0.14
2017-12-10T06:24:40.220Z,0.13
2017-12-10T06:25:39.949Z,0.13
2017-12-10T06:26:40.367Z,0.09
2017-12-10T06:27:40.898Z,0.14
2017-12-10T06:28:40.559Z,0.05
2017-12-10T06:29:40.976Z,0.06
2017-12-10T06:30:41.690Z,0.16
2017-12-10T06:31:41.795Z,0.16
2017-12-10T06:32:42.219Z,0.16
2017-12-10T06:33:42.888Z,0.16
2017-12-10T06:34:43.643Z,0.19
2017-12-10T06:35:43.597Z,0.16
2017-12-10T06:36:43.590Z,0.17
2017-12-10T06:37:43.757Z,0.16
2017-12-10T06:38:43.538Z,0.05
2017-12-10T06:39:43.740Z,-0.05
2017-12-10T06:40:43.995Z,0.02
2017-12-10T06:41:44.298Z,0.02
2017-12-10T06:42:44.278Z,0.08
2017-12-10T06:43:44.523Z,-0.09
2017-12-10T06:44:44.461Z,-0.01
2017-12-10T06:45:44.707Z,-0.02
2017-12-10T06:46:44.711Z,-0.09
2017-12-10T06:47:44.897Z,-0.09
2017-12-10T06:48:45.396Z,-0.09
2017-12-10T06:49:45.585Z,-0.09
2017-12-10T06:50:45.160Z,-0.02
2017-12-10T06:51:45.440Z,-0.09
2017-12-10T06:52:45.899Z,-0.05
2017-12-10T06:53:45.920Z,-0.12
2017-12-10T06:54:46.188Z,-0.12
2017-12-10T06:55:46.275Z,-0.05
2017-12-10T06:56:45.759Z,-0.07
2017-12-10T06:57:46.428Z,-0.1
2017-12-10T06:58:46.035Z,0.01
2017-12-10T06:59:46.496Z,0.08
2017-12-10T07:01:01.204Z,0.05
2017-12-10T07:01:46.607Z,0.2
2017-12-10T07:02:46.562Z,0.16
2017-12-10T07:03:46.283Z,0.23
2017-12-10T07:04:46.447Z,0.24
2017-12-10T07:05:46.885Z,0.31
2017-12-10T07:06:47.317Z,0.34
2017-12-10T07:07:47.441Z,0.21
2017-12-10T07:08:47.177Z,0.23
2017-12-10T07:09:47.494Z,0.26
2017-12-10T07:10:48.034Z,0.27
2017-12-10T07:11:48.196Z,0.19
2017-12-10T07:12:48.302Z,0.2
2017-12-10T07:13:49.096Z,0.17
2017-12-10T07:14:48.809Z,0.14
2017-12-10T07:15:49.096Z,0.21
2017-12-10T07:16:48.828Z,0.17
2017-12-10T07:17:49.291Z,0.2
2017-12-10T07:18:49.421Z,0.2
2017-12-10T07:19:49.594Z,0.17
2017-12-10T07:20:49.342Z,0.16
2017-12-10T07:21:49.772Z,0.2
2017-12-10T07:22:49.914Z,0.16
2017-12-10T07:23:49.975Z,0.17
2017-12-10T07:24:50.697Z,-0.01
2017-12-10T07:25:50.431Z,-0.05
2017-12-10T07:26:50.891Z,-0.07
2017-12-10T07:27:51.154Z,0.05
2017-12-10T07:28:51.171Z,0.02
2017-12-10T07:29:51.040Z,-0.01
2017-12-10T07:30:51.113Z,0.1
2017-12-10T07:31:51.423Z,0.06
2017-12-10T07:32:51.371Z,0.09
2017-12-10T07:33:51.982Z,0.2
2017-12-10T07:34:52.111Z,0.28
2017-12-10T07:35:52.101Z,0.34
2017-12-10T07:36:52.067Z,0.37
2017-12-10T07:37:51.856Z,0.44
2017-12-10T07:38:51.675Z,0.37
2017-12-10T07:39:52.443Z,0.41
2017-12-10T07:40:52.495Z,0.48
2017-12-10T07:41:52.906Z,0.47
2017-12-10T07:42:53.386Z,0.48
2017-12-10T07:43:53.664Z,0.45
2017-12-10T07:44:53.460Z,0.45
2017-12-10T07:45:53.444Z,0.42
2017-12-10T07:46:53.899Z,0.47
2017-12-10T07:47:54.334Z,0.47
2017-12-10T07:48:54.429Z,0.56
2017-12-10T07:49:54.511Z,0.6
2017-12-10T07:50:54.390Z,0.57
2017-12-10T07:51:55.420Z,0.52
2017-12-10T07:52:55.543Z,0.5
2017-12-10T07:53:55.477Z,0.53
2017-12-10T07:54:55.450Z,0.57
2017-12-10T07:55:56.663Z,0.64
2017-12-10T07:56:55.370Z,0.69
2017-12-10T07:57:55.364Z,0.6
2017-12-10T07:58:56.218Z,0.63
2017-12-10T07:59:56.528Z,0.66
2017-12-10T08:00:57.641Z,0.69
2017-12-10T08:01:55.922Z,0.61
2017-12-10T08:02:55.904Z,0.74
2017-12-10T08:03:55.937Z,0.76
2017-12-10T08:04:55.978Z,0.69
2017-12-10T08:05:56.152Z,0.72
2017-12-10T08:06:56.254Z,0.81
2017-12-10T08:07:56.064Z,0.75
2017-12-10T08:08:56.408Z,0.86
2017-12-10T08:09:56.038Z,0.84
2017-12-10T08:10:56.319Z,0.86
2017-12-10T08:11:56.613Z,0.92
2017-12-10T08:12:56.414Z,0.9
2017-12-10T08:13:56.414Z,0.92
2017-12-10T08:14:56.449Z,0.97
2017-12-10T08:15:56.642Z,1.02
2017-12-10T08:16:56.661Z,1.07
2017-12-10T08:17:56.405Z,1.07
2017-12-10T08:18:56.846Z,1.08
2017-12-10T08:19:56.863Z,1.14
2017-12-10T08:20:56.901Z,1.18
2017-12-10T08:21:57.052Z,1.21
2017-12-10T08:22:56.999Z,1.22
2017-12-10T08:23:56.991Z,1.28
2017-12-10T08:24:57.144Z,1.28
2017-12-10T08:25:56.743Z,1.18
2017-12-10T08:26:56.774Z,1.26
2017-12-10T08:27:57.301Z,1.29
2017-12-10T08:28:57.280Z,1.24
2017-12-10T08:29:57.020Z,1.29
2017-12-10T08:30:57.032Z,1.22
2017-12-10T08:31:57.472Z,1.3
2017-12-10T08:32:57.420Z,1.22
2017-12-10T08:33:57.702Z,1.24
2017-12-10T08:34:57.373Z,1.22
2017-12-10T08:35:57.327Z,1.36
2017-12-10T08:36:57.615Z,1.35
2017-12-10T08:37:58.104Z,1.35
2017-12-10T08:38:57.605Z,1.32
2017-12-10T08:39:58.151Z,1.32
2017-12-10T08:40:57.898Z,1.4
2017-12-10T08:41:58.327Z,1.38
2017-12-10T08:42:58.053Z,1.3
2017-12-10T08:44:13.160Z,1.48
2017-12-10T08:44:58.571Z,1.51
2017-12-10T08:45:58.630Z,1.65
2017-12-10T08:46:58.811Z,1.6
2017-12-10T08:47:59.682Z,1.65
2017-12-10T08:48:58.837Z,1.84
2017-12-10T08:49:58.837Z,1.89
2017-12-10T08:50:59.255Z,1.89
2017-12-10T08:51:58.998Z,2.08
2017-12-10T08:52:59.117Z,2.2
2017-12-10T08:53:59.686Z,2.29
2017-12-10T08:54:59.746Z,2.26
2017-12-10T08:55:59.766Z,2.3
2017-12-10T08:56:59.776Z,2.38
2017-12-10T08:57:59.550Z,2.33
2017-12-10T08:59:00.025Z,2.38
2017-12-10T09:00:00.514Z,2.49
2017-12-10T09:01:01.612Z,2.48
2017-12-10T09:02:00.295Z,2.47
2017-12-10T09:03:00.511Z,2.59
2017-12-10T09:04:00.691Z,2.59
2017-12-10T09:05:01.303Z,2.77
2017-12-10T09:06:01.236Z,3.27
2017-12-10T09:07:01.262Z,3.81
2017-12-10T09:08:01.172Z,4.64
2017-12-10T09:09:01.215Z,5.59
2017-12-10T09:10:01.799Z,6.17
2017-12-10T09:11:01.836Z,6.6
2017-12-10T09:12:02.350Z,7.15
2017-12-10T09:13:01.812Z,7.55
2017-12-10T09:14:01.941Z,8.03
2017-12-10T09:15:01.630Z,8.25
2017-12-10T09:16:01.673Z,8.19
2017-12-10T09:17:02.187Z,7.99
2017-12-10T09:18:02.552Z,7.95
2017-12-10T09:19:03.114Z,8.1
2017-12-10T09:20:02.496Z,8.32
2017-12-10T09:21:02.474Z,8.35
2017-12-10T09:22:01.889Z,8.44
2017-12-10T09:23:02.177Z,8.52
2017-12-10T09:24:07.733Z,8.25
2017-12-10T09:25:07.305Z,8.17
2017-12-10T09:26:07.596Z,8.22
2017-12-10T09:27:07.249Z,8.44
2017-12-10T09:28:08.134Z,8.86
2017-12-10T09:29:10.295Z,9.27
2017-12-10T09:30:08.936Z,9.34
2017-12-10T09:31:08.918Z,9.21
2017-12-10T09:32:08.762Z,8.58
2017-12-10T09:33:09.253Z,8.16
2017-12-10T09:34:09.233Z,7.47
2017-12-10T09:35:09.352Z,7.04
2017-12-10T09:36:10.347Z,6.95
2017-12-10T09:37:09.957Z,7.13
2017-12-10T09:38:10.069Z,7
2017-12-10T09:39:10.024Z,6.88
2017-12-10T09:40:09.861Z,6.67
2017-12-10T09:41:10.233Z,6.47
2017-12-10T09:42:10.450Z,6.2
2017-12-10T09:43:10.199Z,6.18
2017-12-10T09:44:10.381Z,6.25
2017-12-10T09:45:11.284Z,6.6
2017-12-10T09:46:11.317Z,6.83
2017-12-10T09:47:10.610Z,7.12
2017-12-10T09:49:25.706Z,7.74
2017-12-10T09:50:10.883Z,7.91
2017-12-10T09:51:10.890Z,7.99
2017-12-10T09:52:10.949Z,8.06
2017-12-10T09:53:11.093Z,8.31
2017-12-10T09:54:11.631Z,8.54
2017-12-10T09:55:11.554Z,8.87
2017-12-10T09:56:12.703Z,9.12
2017-12-10T09:57:12.148Z,9.21
2017-12-10T09:58:12.253Z,9.19
2017-12-10T09:59:12.225Z,8.8
2017-12-10T10:00:12.201Z,8.64
2017-12-10T10:01:37.146Z,8.17
2017-12-10T10:02:22.084Z,7.78
2017-12-10T10:03:22.734Z,7.22
2017-12-10T10:04:22.764Z,6.68
2017-12-10T10:05:22.694Z,6.28
2017-12-10T10:06:22.687Z,5.78
2017-12-10T10:07:23.003Z,5.39
2017-12-10T10:08:22.530Z,5.16
2017-12-10T10:09:22.568Z,5.09
2017-12-10T10:10:22.839Z,5.1
2017-12-10T10:11:22.978Z,4.91
2017-12-10T10:12:22.633Z,4.84
2017-12-10T10:13:23.100Z,4.78
2017-12-10T10:14:22.946Z,4.66
2017-12-10T10:15:22.732Z,4.72
2017-12-10T10:16:23.351Z,4.74
2017-12-10T10:17:23.863Z,4.88
2017-12-10T10:18:23.943Z,5.09
2017-12-10T10:19:24.673Z,5.36
2017-12-10T10:20:24.360Z,5.64
2017-12-10T10:21:24.251Z,5.84
2017-12-10T10:22:24.375Z,5.87
2017-12-10T10:23:24.532Z,6.13
2017-12-10T10:24:25.060Z,6.42
2017-12-10T10:25:25.158Z,6.65
2017-12-10T10:26:24.869Z,6.7
2017-12-10T10:27:25.836Z,7
2017-12-10T10:28:25.200Z,7.01
2017-12-10T10:29:25.747Z,7.09
2017-12-10T10:30:25.449Z,7.04
2017-12-10T10:31:25.727Z,7.15
2017-12-10T10:32:25.814Z,7.13
2017-12-10T10:33:35.900Z,6.98
2017-12-10T10:34:36.096Z,6.64
2017-12-10T10:35:36.572Z,6.46
2017-12-10T10:36:36.920Z,6.58
2017-12-10T10:37:36.502Z,6.82
2017-12-10T10:38:36.328Z,6.58
2017-12-10T10:39:36.788Z,6.4
2017-12-10T10:40:36.876Z,6.18
2017-12-10T10:41:36.658Z,6.42
2017-12-10T10:42:36.642Z,6.93
2017-12-10T10:43:36.474Z,7.12
2017-12-10T10:44:37.155Z,6.76
2017-12-10T10:45:47.217Z,6.24
2017-12-10T10:46:47.682Z,5.63
2017-12-10T10:47:47.851Z,5.08
2017-12-10T10:48:47.893Z,4.66
2017-12-10T10:50:03.202Z,4.2
2017-12-10T10:50:48.266Z,3.97
2017-12-10T10:51:48.475Z,3.93
2017-12-10T10:52:48.189Z,3.94
2017-12-10T10:53:48.419Z,3.97
2017-12-10T10:54:48.786Z,3.93
2017-12-10T10:55:49.467Z,3.81
2017-12-10T10:56:49.488Z,3.6
2017-12-10T10:57:49.414Z,3.4
2017-12-10T10:58:49.955Z,3.43
2017-12-10T10:59:49.464Z,3.51
2017-12-10T11:01:04.456Z,3.76
2017-12-10T11:01:54.747Z,3.84
2017-12-10T11:02:54.808Z,3.76
2017-12-10T11:03:54.622Z,3.66
2017-12-10T11:04:54.650Z,3.64
2017-12-10T11:05:54.898Z,3.61
2017-12-10T11:06:54.669Z,3.76
2017-12-10T11:07:54.602Z,3.92
2017-12-10T11:08:54.634Z,4.08
2017-12-10T11:09:54.909Z,4.17
2017-12-10T11:10:55.081Z,3.97
2017-12-10T11:11:54.865Z,3.94
2017-12-10T11:12:55.141Z,3.89
2017-12-10T11:13:55.143Z,3.78
2017-12-10T11:14:55.238Z,3.56
2017-12-10T11:15:55.156Z,3.45
2017-12-10T11:16:54.938Z,3.42
2017-12-10T11:17:55.414Z,3.43
2017-12-10T11:18:55.839Z,3.24
2017-12-10T11:19:55.632Z,3.13
2017-12-10T11:20:55.914Z,3.01
2017-12-10T11:21:55.658Z,2.84
2017-12-10T11:22:56.103Z,2.58
2017-12-10T11:23:55.837Z,2.62
2017-12-10T11:24:56.476Z,2.45
2017-12-10T11:25:57.341Z,2.29
2017-12-10T11:26:56.728Z,2.45
2017-12-10T11:27:57.241Z,2.31
2017-12-10T11:28:56.908Z,2.26
2017-12-10T11:29:56.961Z,2.24
2017-12-10T11:30:57.082Z,2.2
2017-12-10T11:31:57.418Z,2.13
2017-12-10T11:32:57.060Z,2.02
2017-12-10T11:33:57.217Z,1.9
2017-12-10T11:34:57.357Z,2.04
2017-12-10T11:36:58.047Z,2.04
2017-12-10T11:37:57.733Z,1.94
2017-12-10T11:38:57.850Z,1.93
2017-12-10T11:39:58.126Z,2.06
2017-12-10T11:40:58.805Z,2.02
2017-12-10T11:41:58.201Z,1.9
2017-12-10T11:42:58.308Z,1.93
2017-12-10T11:43:58.111Z,1.93
2017-12-10T11:44:58.511Z,1.89
2017-12-10T11:45:58.463Z,1.84
2017-12-10T11:46:59.066Z,1.83
2017-12-10T11:47:58.512Z,1.89
2017-12-10T11:48:58.328Z,1.78
2017-12-10T11:49:58.509Z,1.86
2017-12-10T11:50:58.284Z,1.94
2017-12-10T11:51:58.547Z,1.9
2017-12-10T11:52:58.547Z,2.05
2017-12-10T11:53:59.269Z,2.02
2017-12-10T11:54:58.818Z,2.06
2017-12-10T11:55:59.140Z,2.11
2017-12-10T11:56:59.447Z,2.05
2017-12-10T11:57:59.149Z,2.11
2017-12-10T11:59:00.024Z,2.13
2017-12-10T11:59:59.678Z,2.06
2017-12-10T12:00:59.285Z,2.18
2017-12-10T12:02:09.356Z,2.23
2017-12-10T12:03:23.298Z,2.2
2017-12-10T12:04:08.976Z,2.29
2017-12-10T12:05:08.800Z,2.22
2017-12-10T12:06:09.224Z,2.33
2017-12-10T12:07:08.349Z,2.29
2017-12-10T12:08:10.020Z,2.31
2017-12-10T12:09:09.693Z,2.38
2017-12-10T12:10:09.458Z,2.48
2017-12-10T12:11:09.673Z,2.47
2017-12-10T12:12:09.704Z,2.55
2017-12-10T12:13:09.005Z,2.55
2017-12-10T12:14:10.181Z,2.52
2017-12-10T12:15:09.569Z,2.59
2017-12-10T12:16:09.541Z,2.54
2017-12-10T12:17:09.828Z,2.48
2017-12-10T12:18:10.266Z,2.41
2017-12-10T12:19:09.756Z,2.42
2017-12-10T12:20:09.774Z,2.44
2017-12-10T12:21:10.344Z,2.4
2017-12-10T12:22:10.237Z,2.42
2017-12-10T12:23:10.982Z,2.42
2017-12-10T12:24:10.737Z,2.34
2017-12-10T12:25:11.418Z,2.33
2017-12-10T12:26:11.921Z,2.36
2017-12-10T12:27:11.627Z,2.27
2017-12-10T12:28:12.025Z,2.27
2017-12-10T12:29:12.267Z,2.24
2017-12-10T12:30:12.228Z,2.26
2017-12-10T12:31:12.379Z,2.18
2017-12-10T12:32:12.096Z,2.15
2017-12-10T12:33:12.479Z,2.09
2017-12-10T12:34:13.260Z,2.16
2017-12-10T12:35:13.053Z,2.15
2017-12-10T12:36:12.979Z,2.09
2017-12-10T12:37:13.099Z,2.08
2017-12-10T12:38:13.102Z,2.01
2017-12-10T12:39:13.242Z,1.93
2017-12-10T12:40:13.695Z,1.9
2017-12-10T12:41:13.464Z,1.93
2017-12-10T12:42:13.898Z,1.79
2017-12-10T12:43:14.263Z,1.78
2017-12-10T12:44:14.211Z,1.79
2017-12-10T12:45:14.730Z,1.78
2017-12-10T12:46:15.030Z,1.65
2017-12-10T12:48:14.657Z,1.75
2017-12-10T12:49:14.957Z,1.75
2017-12-10T12:50:15.168Z,1.76
2017-12-10T12:51:15.068Z,1.66
2017-12-10T12:52:15.079Z,1.71
2017-12-10T12:53:15.541Z,1.74
2017-12-10T12:54:15.404Z,1.66
2017-12-10T12:55:15.937Z,1.72
2017-12-10T12:56:16.848Z,1.6
2017-12-10T12:57:16.733Z,1.57
2017-12-10T12:58:16.227Z,1.54
2017-12-10T12:59:16.179Z,1.58
2017-12-10T13:00:16.416Z,1.56
2017-12-10T13:01:16.788Z,1.64
2017-12-10T13:02:22.950Z,1.6
2017-12-10T13:03:47.238Z,1.48
2017-12-10T13:04:32.962Z,1.48
2017-12-10T13:05:38.224Z,1.47
2017-12-10T13:06:33.024Z,1.44
2017-12-10T13:07:32.796Z,1.44
2017-12-10T13:08:33.446Z,1.48
2017-12-10T13:09:34.208Z,1.53
2017-12-10T13:10:32.737Z,1.46
2017-12-10T13:11:33.154Z,1.48
2017-12-10T13:12:33.379Z,1.42
2017-12-10T13:13:33.165Z,1.46
2017-12-10T13:14:33.106Z,1.46
2017-12-10T13:15:33.222Z,1.48
2017-12-10T13:16:33.364Z,1.44
2017-12-10T13:17:33.669Z,1.42
2017-12-10T13:18:33.705Z,1.4
2017-12-10T13:19:33.673Z,1.42
2017-12-10T13:20:34.345Z,1.4
2017-12-10T13:21:34.151Z,1.48
2017-12-10T13:22:35.077Z,1.39
2017-12-10T13:23:36.356Z,1.33
2017-12-10T13:24:35.081Z,1.38
2017-12-10T13:25:34.574Z,1.39
2017-12-10T13:26:35.112Z,1.4
2017-12-10T13:27:34.865Z,1.35
2017-12-10T13:28:36.783Z,1.4
2017-12-10T13:29:36.233Z,1.42
2017-12-10T13:30:36.560Z,1.39
2017-12-10T13:31:36.854Z,1.38